sensor_id;sensor_type;location;lat;lon;timestamp;pressure;altitude;pressure_sealevel;temperature;humidity
27729;BME280;15126;42.186;24.340;2022-07-03T00:00:14;99634.41;;;23.76;73.26
27729;BME280;15126;42.186;24.340;2022-07-03T00:02:41;99648.13;;;23.77;75.72
27729;BME280;15126;42.186;24.340;2022-07-03T00:05:08;99636.94;;;23.62;75.51
27729;BME280;15126;42.186;24.340;2022-07-03T00:07:36;99644.75;;;23.73;74.58
27729;BME280;15126;42.186;24.340;2022-07-03T00:10:05;99640.63;;;23.80;76.89
27729;BME280;15126;42.186;24.340;2022-07-03T00:12:32;99640.88;;;23.82;73.28
27729;BME280;15126;42.186;24.340;2022-07-03T00:15:00;99636.75;;;23.77;75.14
27729;BME280;15126;42.186;24.340;2022-07-03T00:17:29;99641.38;;;23.69;75.47
27729;BME280;15126;42.186;24.340;2022-07-03T00:19:56;99609.13;;;23.35;76.14
27729;BME280;15126;42.186;24.340;2022-07-03T00:22:24;99640.00;;;23.42;75.69
27729;BME280;15126;42.186;24.340;2022-07-03T00:24:53;99638.06;;;23.28;76.85
27729;BME280;15126;42.186;24.340;2022-07-03T00:27:24;99646.09;;;23.30;75.98
27729;BME280;15126;42.186;24.340;2022-07-03T00:29:55;99638.16;;;23.39;76.71
27729;BME280;15126;42.186;24.340;2022-07-03T00:32:23;99627.28;;;23.38;74.49
27729;BME280;15126;42.186;24.340;2022-07-03T00:34:53;99619.50;;;23.38;75.71
27729;BME280;15126;42.186;24.340;2022-07-03T00:37:24;99614.38;;;23.42;75.31
27729;BME280;15126;42.186;24.340;2022-07-03T00:39:51;99629.41;;;23.54;74.42
27729;BME280;15126;42.186;24.340;2022-07-03T00:42:19;99630.97;;;23.55;75.98
27729;BME280;15126;42.186;24.340;2022-07-03T00:44:47;99637.44;;;23.55;74.76
27729;BME280;15126;42.186;24.340;2022-07-03T00:47:16;99628.94;;;23.61;74.18
27729;BME280;15126;42.186;24.340;2022-07-03T00:49:50;99626.56;;;23.59;75.08
27729;BME280;15126;42.186;24.340;2022-07-03T00:52:20;99616.22;;;23.56;73.02
27729;BME280;15126;42.186;24.340;2022-07-03T00:54:51;99621.41;;;23.63;75.90
27729;BME280;15126;42.186;24.340;2022-07-03T00:57:21;99619.63;;;23.66;74.84
27729;BME280;15126;42.186;24.340;2022-07-03T00:59:49;99611.84;;;23.66;74.85
27729;BME280;15126;42.186;24.340;2022-07-03T01:02:27;99614.44;;;23.70;76.80
27729;BME280;15126;42.186;24.340;2022-07-03T01:05:02;99616.78;;;23.72;74.73
27729;BME280;15126;42.186;24.340;2022-07-03T01:07:41;99612.66;;;23.73;74.66
27729;BME280;15126;42.186;24.340;2022-07-03T01:10:14;99613.13;;;23.65;73.08
27729;BME280;15126;42.186;24.340;2022-07-03T01:12:54;99612.88;;;23.63;73.91
27729;BME280;15126;42.186;24.340;2022-07-03T01:15:32;99612.34;;;23.59;74.35
27729;BME280;15126;42.186;24.340;2022-07-03T01:18:13;99610.25;;;23.54;74.43
27729;BME280;15126;42.186;24.340;2022-07-03T01:20:52;99607.16;;;23.52;75.42
27729;BME280;15126;42.186;24.340;2022-07-03T01:23:30;99611.78;;;23.44;75.10
27729;BME280;15126;42.186;24.340;2022-07-03T01:26:03;99607.09;;;23.41;76.17
27729;BME280;15126;42.186;24.340;2022-07-03T01:28:32;99607.28;;;23.32;75.75
27729;BME280;15126;42.186;24.340;2022-07-03T01:31:03;99603.31;;;23.13;77.01
27729;BME280;15126;42.186;24.340;2022-07-03T01:33:33;99609.81;;;23.19;77.08
27729;BME280;15126;42.186;24.340;2022-07-03T01:36:04;99587.19;;;22.93;77.23
27729;BME280;15126;42.186;24.340;2022-07-03T01:38:32;99608.41;;;22.98;77.59
27729;BME280;15126;42.186;24.340;2022-07-03T01:41:03;99601.31;;;22.77;78.51
27729;BME280;15126;42.186;24.340;2022-07-03T01:43:31;99593.59;;;22.83;78.69
27729;BME280;15126;42.186;24.340;2022-07-03T01:46:00;99591.25;;;22.81;78.94
27729;BME280;15126;42.186;24.340;2022-07-03T01:48:29;99605.44;;;22.76;79.15
27729;BME280;15126;42.186;24.340;2022-07-03T01:50:58;99607.81;;;22.83;79.24
27729;BME280;15126;42.186;24.340;2022-07-03T01:53:27;99611.38;;;22.78;78.95
27729;BME280;15126;42.186;24.340;2022-07-03T01:55:56;99614.53;;;22.80;80.24
27729;BME280;15126;42.186;24.340;2022-07-03T01:58:25;99618.38;;;22.77;80.02
27729;BME280;15126;42.186;24.340;2022-07-03T02:01:01;99606.41;;;22.67;80.16
27729;BME280;15126;42.186;24.340;2022-07-03T02:03:34;99615.16;;;22.32;80.68
27729;BME280;15126;42.186;24.340;2022-07-03T02:06:08;99614.47;;;22.12;81.77
27729;BME280;15126;42.186;24.340;2022-07-03T02:08:43;99572.13;;;21.88;81.98
27729;BME280;15126;42.186;24.340;2022-07-03T02:11:14;99611.34;;;22.10;82.48
27729;BME280;15126;42.186;24.340;2022-07-03T02:14:06;99613.53;;;22.20;82.26
27729;BME280;15126;42.186;24.340;2022-07-03T02:16:45;99596.44;;;21.89;83.05
27729;BME280;15126;42.186;24.340;2022-07-03T02:19:16;99601.66;;;21.96;82.55
27729;BME280;15126;42.186;24.340;2022-07-03T02:21:47;99607.91;;;22.00;82.92
27729;BME280;15126;42.186;24.340;2022-07-03T02:24:19;99593.31;;;21.87;83.76
27729;BME280;15126;42.186;24.340;2022-07-03T02:26:53;99609.34;;;21.90;83.66
27729;BME280;15126;42.186;24.340;2022-07-03T02:29:28;99607.78;;;21.89;83.36
27729;BME280;15126;42.186;24.340;2022-07-03T02:31:59;99593.84;;;21.65;83.95
27729;BME280;15126;42.186;24.340;2022-07-03T02:34:28;99614.88;;;21.79;84.43
27729;BME280;15126;42.186;24.340;2022-07-03T02:37:03;99619.28;;;21.80;83.93
27729;BME280;15126;42.186;24.340;2022-07-03T02:39:36;99618.88;;;21.87;83.04
27729;BME280;15126;42.186;24.340;2022-07-03T02:42:12;99614.72;;;21.88;82.96
27729;BME280;15126;42.186;24.340;2022-07-03T02:44:46;99619.16;;;21.89;83.03
27729;BME280;15126;42.186;24.340;2022-07-03T02:47:23;99618.94;;;21.92;82.63
27729;BME280;15126;42.186;24.340;2022-07-03T02:49:58;99609.91;;;21.94;82.76
27729;BME280;15126;42.186;24.340;2022-07-03T02:52:33;99618.69;;;21.96;82.93
27729;BME280;15126;42.186;24.340;2022-07-03T02:55:08;99606.38;;;22.05;82.98
27729;BME280;15126;42.186;24.340;2022-07-03T02:57:39;99608.91;;;21.97;82.31
27729;BME280;15126;42.186;24.340;2022-07-03T03:00:09;99604.06;;;22.03;81.89
27729;BME280;15126;42.186;24.340;2022-07-03T03:02:52;99614.97;;;22.10;82.79
27729;BME280;15126;42.186;24.340;2022-07-03T03:05:30;99599.09;;;21.98;82.49
27729;BME280;15126;42.186;24.340;2022-07-03T03:08:16;99607.91;;;22.00;82.55
27729;BME280;15126;42.186;24.340;2022-07-03T03:10:47;99606.31;;;21.99;82.21
27729;BME280;15126;42.186;24.340;2022-07-03T03:13:15;99606.78;;;21.92;82.61
27729;BME280;15126;42.186;24.340;2022-07-03T03:15:57;99627.41;;;21.87;82.52
27729;BME280;15126;42.186;24.340;2022-07-03T03:18:28;99615.53;;;21.88;82.71
27729;BME280;15126;42.186;24.340;2022-07-03T03:20:59;99618.28;;;21.83;82.60
27729;BME280;15126;42.186;24.340;2022-07-03T03:23:35;99624.88;;;21.74;82.57
27729;BME280;15126;42.186;24.340;2022-07-03T03:26:02;99621.34;;;21.79;83.02
27729;BME280;15126;42.186;24.340;2022-07-03T03:28:29;99625.09;;;21.91;83.10
27729;BME280;15126;42.186;24.340;2022-07-03T03:30:59;99621.03;;;21.98;82.50
27729;BME280;15126;42.186;24.340;2022-07-03T03:33:27;99620.53;;;21.99;82.59
27729;BME280;15126;42.186;24.340;2022-07-03T03:35:55;99617.69;;;21.99;82.86
27729;BME280;15126;42.186;24.340;2022-07-03T03:38:22;99625.47;;;21.99;82.63
27729;BME280;15126;42.186;24.340;2022-07-03T03:40:50;99606.22;;;21.88;83.27
27729;BME280;15126;42.186;24.340;2022-07-03T03:43:17;99599.31;;;21.94;83.00
27729;BME280;15126;42.186;24.340;2022-07-03T03:45:45;99623.72;;;22.07;82.77
27729;BME280;15126;42.186;24.340;2022-07-03T03:48:13;99619.59;;;22.08;82.31
27729;BME280;15126;42.186;24.340;2022-07-03T03:50:41;99622.41;;;21.82;82.96
27729;BME280;15126;42.186;24.340;2022-07-03T03:53:10;99621.72;;;21.87;82.94
27729;BME280;15126;42.186;24.340;2022-07-03T03:55:37;99624.81;;;21.89;83.23
27729;BME280;15126;42.186;24.340;2022-07-03T03:58:04;99627.22;;;21.96;82.92
27729;BME280;15126;42.186;24.340;2022-07-03T04:00:32;99624.66;;;21.98;83.17
27729;BME280;15126;42.186;24.340;2022-07-03T04:02:59;99611.69;;;21.91;83.11
27729;BME280;15126;42.186;24.340;2022-07-03T04:05:27;99629.91;;;22.05;83.01
27729;BME280;15126;42.186;24.340;2022-07-03T04:07:56;99622.94;;;22.06;82.22
27729;BME280;15126;42.186;24.340;2022-07-03T04:10:24;99630.00;;;22.16;81.88
27729;BME280;15126;42.186;24.340;2022-07-03T04:12:51;99622.59;;;22.24;82.19
27729;BME280;15126;42.186;24.340;2022-07-03T04:15:18;99626.47;;;22.27;82.09
27729;BME280;15126;42.186;24.340;2022-07-03T04:17:45;99623.00;;;22.43;82.24
27729;BME280;15126;42.186;24.340;2022-07-03T04:20:12;99609.88;;;22.51;80.06
27729;BME280;15126;42.186;24.340;2022-07-03T04:22:41;99623.59;;;23.26;78.14
27729;BME280;15126;42.186;24.340;2022-07-03T04:25:08;99630.28;;;23.88;75.69
27729;BME280;15126;42.186;24.340;2022-07-03T04:27:35;99639.44;;;24.31;72.09
27729;BME280;15126;42.186;24.340;2022-07-03T04:30:03;99634.25;;;24.96;71.76
27729;BME280;15126;42.186;24.340;2022-07-03T04:32:35;99635.38;;;25.61;69.49
27729;BME280;15126;42.186;24.340;2022-07-03T04:35:03;99608.09;;;26.01;67.54
27729;BME280;15126;42.186;24.340;2022-07-03T04:37:30;99631.16;;;26.55;64.55
27729;BME280;15126;42.186;24.340;2022-07-03T04:39:58;99633.34;;;26.97;63.75
27729;BME280;15126;42.186;24.340;2022-07-03T04:42:26;99623.91;;;27.27;61.24
27729;BME280;15126;42.186;24.340;2022-07-03T04:44:53;99624.41;;;27.55;61.23
27729;BME280;15126;42.186;24.340;2022-07-03T04:47:20;99622.25;;;27.61;60.00
27729;BME280;15126;42.186;24.340;2022-07-03T04:49:47;99624.31;;;27.60;59.68
27729;BME280;15126;42.186;24.340;2022-07-03T04:52:14;99622.75;;;27.59;59.52
27729;BME280;15126;42.186;24.340;2022-07-03T04:54:43;99616.19;;;27.64;62.77
27729;BME280;15126;42.186;24.340;2022-07-03T04:57:11;99626.56;;;27.67;61.08
27729;BME280;15126;42.186;24.340;2022-07-03T04:59:38;99626.34;;;27.65;60.30
27729;BME280;15126;42.186;24.340;2022-07-03T05:02:05;99619.88;;;27.41;60.82
27729;BME280;15126;42.186;24.340;2022-07-03T05:04:32;99622.44;;;27.20;60.61
27729;BME280;15126;42.186;24.340;2022-07-03T05:06:59;99619.22;;;27.05;62.43
27729;BME280;15126;42.186;24.340;2022-07-03T05:09:26;99603.94;;;26.97;62.97
27729;BME280;15126;42.186;24.340;2022-07-03T05:11:54;99608.81;;;26.78;62.83
27729;BME280;15126;42.186;24.340;2022-07-03T05:14:22;99617.44;;;26.72;62.78
27729;BME280;15126;42.186;24.340;2022-07-03T05:16:49;99623.25;;;26.61;62.73
27729;BME280;15126;42.186;24.340;2022-07-03T05:19:16;99617.75;;;26.39;63.70
27729;BME280;15126;42.186;24.340;2022-07-03T05:21:43;99599.25;;;26.40;66.89
27729;BME280;15126;42.186;24.340;2022-07-03T05:24:10;99604.06;;;26.56;66.25
27729;BME280;15126;42.186;24.340;2022-07-03T05:26:37;99623.13;;;26.78;64.68
27729;BME280;15126;42.186;24.340;2022-07-03T05:29:04;99625.19;;;26.77;62.05
27729;BME280;15126;42.186;24.340;2022-07-03T05:31:33;99623.66;;;27.06;63.27
27729;BME280;15126;42.186;24.340;2022-07-03T05:34:00;99622.50;;;27.14;63.73
27729;BME280;15126;42.186;24.340;2022-07-03T05:36:27;99625.13;;;27.37;59.94
27729;BME280;15126;42.186;24.340;2022-07-03T05:38:54;99621.31;;;27.29;59.85
27729;BME280;15126;42.186;24.340;2022-07-03T05:41:38;99624.34;;;27.36;61.21
27729;BME280;15126;42.186;24.340;2022-07-03T05:44:05;99628.13;;;27.50;60.94
27729;BME280;15126;42.186;24.340;2022-07-03T05:46:33;99628.50;;;27.59;62.99
27729;BME280;15126;42.186;24.340;2022-07-03T05:49:01;99622.06;;;27.53;59.49
27729;BME280;15126;42.186;24.340;2022-07-03T05:51:28;99620.13;;;27.37;59.49
27729;BME280;15126;42.186;24.340;2022-07-03T05:53:55;99633.00;;;27.31;59.46
27729;BME280;15126;42.186;24.340;2022-07-03T05:56:22;99608.75;;;27.32;59.81
27729;BME280;15126;42.186;24.340;2022-07-03T05:58:50;99622.47;;;27.39;59.29
27729;BME280;15126;42.186;24.340;2022-07-03T06:01:17;99617.72;;;27.47;59.56
27729;BME280;15126;42.186;24.340;2022-07-03T06:03:46;99608.28;;;27.52;59.76
27729;BME280;15126;42.186;24.340;2022-07-03T06:06:13;99608.91;;;27.63;60.06
27729;BME280;15126;42.186;24.340;2022-07-03T06:08:40;99622.09;;;27.72;57.17
27729;BME280;15126;42.186;24.340;2022-07-03T06:11:07;99616.97;;;27.84;59.54
27729;BME280;15126;42.186;24.340;2022-07-03T06:13:34;99616.66;;;28.06;59.61
27729;BME280;15126;42.186;24.340;2022-07-03T06:16:01;99612.47;;;28.25;59.83
27729;BME280;15126;42.186;24.340;2022-07-03T06:18:28;99615.00;;;28.29;57.47
27729;BME280;15126;42.186;24.340;2022-07-03T06:20:56;99610.09;;;28.43;56.56
27729;BME280;15126;42.186;24.340;2022-07-03T06:23:23;99619.38;;;28.49;56.93
27729;BME280;15126;42.186;24.340;2022-07-03T06:25:50;99615.78;;;28.61;56.52
27729;BME280;15126;42.186;24.340;2022-07-03T06:28:17;99613.94;;;28.77;57.09
27729;BME280;15126;42.186;24.340;2022-07-03T06:30:44;99617.50;;;28.96;57.69
27729;BME280;15126;42.186;24.340;2022-07-03T06:33:12;99612.56;;;28.97;56.86
27729;BME280;15126;42.186;24.340;2022-07-03T06:35:39;99603.84;;;29.15;54.03
27729;BME280;15126;42.186;24.340;2022-07-03T06:38:07;99610.16;;;29.40;54.99
27729;BME280;15126;42.186;24.340;2022-07-03T06:40:34;99597.56;;;29.43;58.35
27729;BME280;15126;42.186;24.340;2022-07-03T06:43:01;99604.69;;;29.76;58.93
27729;BME280;15126;42.186;24.340;2022-07-03T06:45:28;99604.81;;;29.70;53.22
27729;BME280;15126;42.186;24.340;2022-07-03T06:47:56;99602.34;;;29.87;52.17
27729;BME280;15126;42.186;24.340;2022-07-03T06:50:23;99590.81;;;29.87;50.86
27729;BME280;15126;42.186;24.340;2022-07-03T06:52:50;99598.16;;;30.09;50.33
27729;BME280;15126;42.186;24.340;2022-07-03T06:55:19;99603.00;;;30.14;51.97
27729;BME280;15126;42.186;24.340;2022-07-03T06:57:46;99601.88;;;30.17;48.42
27729;BME280;15126;42.186;24.340;2022-07-03T07:03:35;99594.66;;;30.57;46.66
27729;BME280;15126;42.186;24.340;2022-07-03T07:06:02;99596.97;;;30.59;48.91
27729;BME280;15126;42.186;24.340;2022-07-03T07:08:29;99589.28;;;30.61;47.67
27729;BME280;15126;42.186;24.340;2022-07-03T07:10:58;99594.91;;;30.67;49.09
27729;BME280;15126;42.186;24.340;2022-07-03T07:13:26;99587.59;;;30.87;50.96
27729;BME280;15126;42.186;24.340;2022-07-03T07:15:53;99591.66;;;30.91;47.46
27729;BME280;15126;42.186;24.340;2022-07-03T07:18:20;99581.31;;;30.96;45.64
27729;BME280;15126;42.186;24.340;2022-07-03T07:20:47;99581.59;;;31.05;48.64
27729;BME280;15126;42.186;24.340;2022-07-03T07:23:14;99579.63;;;31.00;46.22
27729;BME280;15126;42.186;24.340;2022-07-03T07:25:42;99577.47;;;31.21;48.66
27729;BME280;15126;42.186;24.340;2022-07-03T07:28:10;99574.25;;;31.33;48.35
27729;BME280;15126;42.186;24.340;2022-07-03T07:30:37;99578.00;;;31.48;49.18
27729;BME280;15126;42.186;24.340;2022-07-03T07:33:05;99567.28;;;31.56;47.64
27729;BME280;15126;42.186;24.340;2022-07-03T07:35:32;99563.84;;;31.65;45.51
27729;BME280;15126;42.186;24.340;2022-07-03T07:37:59;99570.00;;;31.62;45.87
27729;BME280;15126;42.186;24.340;2022-07-03T07:40:26;99567.34;;;31.71;44.43
27729;BME280;15126;42.186;24.340;2022-07-03T07:42:54;99574.72;;;31.95;47.15
27729;BME280;15126;42.186;24.340;2022-07-03T07:45:22;99563.41;;;31.46;44.52
27729;BME280;15126;42.186;24.340;2022-07-03T07:47:49;99564.81;;;31.60;45.87
27729;BME280;15126;42.186;24.340;2022-07-03T07:50:16;99564.41;;;31.64;46.52
27729;BME280;15126;42.186;24.340;2022-07-03T07:52:44;99560.63;;;31.69;47.93
27729;BME280;15126;42.186;24.340;2022-07-03T07:55:11;99554.63;;;31.74;46.46
27729;BME280;15126;42.186;24.340;2022-07-03T07:57:38;99565.91;;;32.01;52.65
27729;BME280;15126;42.186;24.340;2022-07-03T08:00:07;99552.28;;;32.16;43.78
27729;BME280;15126;42.186;24.340;2022-07-03T08:02:36;99551.13;;;32.27;43.04
27729;BME280;15126;42.186;24.340;2022-07-03T08:05:21;99544.19;;;32.30;44.00
27729;BME280;15126;42.186;24.340;2022-07-03T08:08:04;99549.78;;;32.51;42.63
27729;BME280;15126;42.186;24.340;2022-07-03T08:10:40;99555.63;;;32.58;45.95
27729;BME280;15126;42.186;24.340;2022-07-03T08:13:08;99554.25;;;32.59;51.26
27729;BME280;15126;42.186;24.340;2022-07-03T08:15:35;99552.53;;;32.71;40.99
27729;BME280;15126;42.186;24.340;2022-07-03T08:18:05;99549.22;;;32.82;40.37
27729;BME280;15126;42.186;24.340;2022-07-03T08:20:33;99557.50;;;32.86;37.04
27729;BME280;15126;42.186;24.340;2022-07-03T08:23:01;99556.72;;;32.78;43.06
27729;BME280;15126;42.186;24.340;2022-07-03T08:25:28;99548.06;;;32.70;39.80
27729;BME280;15126;42.186;24.340;2022-07-03T08:27:56;99560.56;;;32.95;43.10
27729;BME280;15126;42.186;24.340;2022-07-03T08:30:23;99552.88;;;33.06;39.92
27729;BME280;15126;42.186;24.340;2022-07-03T08:32:54;99549.53;;;33.24;40.24
27729;BME280;15126;42.186;24.340;2022-07-03T08:35:23;99562.81;;;33.35;41.95
27729;BME280;15126;42.186;24.340;2022-07-03T08:37:51;99554.31;;;33.44;40.92
27729;BME280;15126;42.186;24.340;2022-07-03T08:40:19;99559.69;;;33.40;35.55
27729;BME280;15126;42.186;24.340;2022-07-03T08:42:47;99562.38;;;33.46;38.93
27729;BME280;15126;42.186;24.340;2022-07-03T08:45:16;99550.03;;;33.53;37.64
27729;BME280;15126;42.186;24.340;2022-07-03T08:47:44;99550.63;;;33.59;39.20
27729;BME280;15126;42.186;24.340;2022-07-03T08:50:12;99538.03;;;33.64;41.49
27729;BME280;15126;42.186;24.340;2022-07-03T08:52:42;99550.56;;;33.67;36.76
27729;BME280;15126;42.186;24.340;2022-07-03T08:55:10;99539.53;;;33.73;41.53
27729;BME280;15126;42.186;24.340;2022-07-03T08:57:37;99557.53;;;33.56;37.40
27729;BME280;15126;42.186;24.340;2022-07-03T09:00:08;99527.88;;;33.48;34.88
27729;BME280;15126;42.186;24.340;2022-07-03T09:02:35;99548.44;;;33.67;34.76
27729;BME280;15126;42.186;24.340;2022-07-03T09:05:04;99541.06;;;33.74;35.58
27729;BME280;15126;42.186;24.340;2022-07-03T09:07:35;99540.50;;;33.68;35.38
27729;BME280;15126;42.186;24.340;2022-07-03T09:10:05;99548.06;;;33.63;35.10
27729;BME280;15126;42.186;24.340;2022-07-03T09:12:34;99547.13;;;33.61;34.08
27729;BME280;15126;42.186;24.340;2022-07-03T09:15:02;99539.22;;;33.53;37.02
27729;BME280;15126;42.186;24.340;2022-07-03T09:17:30;99530.66;;;33.71;37.48
27729;BME280;15126;42.186;24.340;2022-07-03T09:19:58;99524.31;;;33.72;34.78
27729;BME280;15126;42.186;24.340;2022-07-03T09:22:28;99533.25;;;33.91;35.60
27729;BME280;15126;42.186;24.340;2022-07-03T09:25:08;99540.41;;;33.90;35.68
27729;BME280;15126;42.186;24.340;2022-07-03T09:27:39;99524.56;;;33.91;36.18
27729;BME280;15126;42.186;24.340;2022-07-03T09:30:15;99529.19;;;33.94;35.80
27729;BME280;15126;42.186;24.340;2022-07-03T09:32:43;99538.59;;;34.02;35.41
27729;BME280;15126;42.186;24.340;2022-07-03T09:35:18;99537.69;;;33.92;37.19
27729;BME280;15126;42.186;24.340;2022-07-03T09:37:51;99536.69;;;33.97;38.74
27729;BME280;15126;42.186;24.340;2022-07-03T09:40:21;99525.16;;;33.90;34.81
27729;BME280;15126;42.186;24.340;2022-07-03T09:42:58;99525.84;;;34.05;36.09
27729;BME280;15126;42.186;24.340;2022-07-03T09:45:26;99521.31;;;33.87;33.30
27729;BME280;15126;42.186;24.340;2022-07-03T09:47:53;99519.84;;;34.03;35.41
27729;BME280;15126;42.186;24.340;2022-07-03T09:50:20;99516.78;;;34.01;35.94
27729;BME280;15126;42.186;24.340;2022-07-03T09:52:48;99519.31;;;33.97;34.67
27729;BME280;15126;42.186;24.340;2022-07-03T09:55:18;99509.72;;;33.87;34.26
27729;BME280;15126;42.186;24.340;2022-07-03T09:57:59;99512.56;;;33.95;34.84
27729;BME280;15126;42.186;24.340;2022-07-03T10:00:28;99512.34;;;34.00;34.00
27729;BME280;15126;42.186;24.340;2022-07-03T10:02:58;99502.38;;;33.94;35.41
27729;BME280;15126;42.186;24.340;2022-07-03T10:05:27;99515.75;;;34.14;34.61
27729;BME280;15126;42.186;24.340;2022-07-03T10:07:56;99510.38;;;34.10;34.00
27729;BME280;15126;42.186;24.340;2022-07-03T10:10:26;99501.69;;;34.10;35.23
27729;BME280;15126;42.186;24.340;2022-07-03T10:12:55;99502.44;;;34.11;33.23
27729;BME280;15126;42.186;24.340;2022-07-03T10:15:23;99483.16;;;34.14;36.65
27729;BME280;15126;42.186;24.340;2022-07-03T10:17:52;99494.44;;;34.27;34.50
27729;BME280;15126;42.186;24.340;2022-07-03T10:20:24;99498.38;;;34.14;34.30
27729;BME280;15126;42.186;24.340;2022-07-03T10:22:52;99501.34;;;33.99;34.12
27729;BME280;15126;42.186;24.340;2022-07-03T10:25:20;99491.00;;;34.21;36.99
27729;BME280;15126;42.186;24.340;2022-07-03T10:27:48;99484.56;;;34.30;35.45
27729;BME280;15126;42.186;24.340;2022-07-03T10:30:18;99496.25;;;34.39;35.02
27729;BME280;15126;42.186;24.340;2022-07-03T10:32:47;99487.94;;;34.36;33.52
27729;BME280;15126;42.186;24.340;2022-07-03T10:35:19;99478.38;;;34.50;34.59
27729;BME280;15126;42.186;24.340;2022-07-03T10:38:05;99475.59;;;34.60;36.81
27729;BME280;15126;42.186;24.340;2022-07-03T10:40:42;99482.16;;;34.60;35.77
27729;BME280;15126;42.186;24.340;2022-07-03T10:43:30;99469.88;;;34.28;34.64
27729;BME280;15126;42.186;24.340;2022-07-03T10:46:17;99465.88;;;34.23;36.22
27729;BME280;15126;42.186;24.340;2022-07-03T10:48:58;99461.38;;;34.30;37.04
27729;BME280;15126;42.186;24.340;2022-07-03T10:51:27;99467.03;;;34.45;35.28
27729;BME280;15126;42.186;24.340;2022-07-03T10:54:15;99467.44;;;34.41;33.75
27729;BME280;15126;42.186;24.340;2022-07-03T10:57:04;99470.41;;;34.34;36.61
27729;BME280;15126;42.186;24.340;2022-07-03T11:00:04;99470.09;;;34.22;33.78
27729;BME280;15126;42.186;24.340;2022-07-03T11:02:37;99453.03;;;34.09;36.22
27729;BME280;15126;42.186;24.340;2022-07-03T11:05:15;99462.88;;;34.14;33.74
27729;BME280;15126;42.186;24.340;2022-07-03T11:10:40;99455.19;;;33.76;33.86
27729;BME280;15126;42.186;24.340;2022-07-03T11:13:13;99463.88;;;33.76;34.34
27729;BME280;15126;42.186;24.340;2022-07-03T11:15:43;99447.34;;;33.69;36.67
27729;BME280;15126;42.186;24.340;2022-07-03T11:18:31;99439.78;;;33.98;33.36
27729;BME280;15126;42.186;24.340;2022-07-03T11:21:20;99444.00;;;34.05;34.02
27729;BME280;15126;42.186;24.340;2022-07-03T11:24:25;99437.78;;;34.08;33.66
27729;BME280;15126;42.186;24.340;2022-07-03T11:27:27;99435.44;;;34.15;34.35
27729;BME280;15126;42.186;24.340;2022-07-03T11:30:01;99438.84;;;34.21;34.50
27729;BME280;15126;42.186;24.340;2022-07-03T11:32:54;99447.66;;;34.05;33.10
27729;BME280;15126;42.186;24.340;2022-07-03T11:35:46;99431.09;;;33.98;35.92
27729;BME280;15126;42.186;24.340;2022-07-03T11:38:15;99436.66;;;33.79;33.84
27729;BME280;15126;42.186;24.340;2022-07-03T11:40:43;99431.88;;;33.99;37.03
27729;BME280;15126;42.186;24.340;2022-07-03T11:43:12;99424.34;;;33.96;35.64
27729;BME280;15126;42.186;24.340;2022-07-03T11:45:39;99431.09;;;33.98;36.50
27729;BME280;15126;42.186;24.340;2022-07-03T11:48:09;99428.03;;;33.96;33.71
27729;BME280;15126;42.186;24.340;2022-07-03T11:50:40;99425.47;;;34.00;34.84
27729;BME280;15126;42.186;24.340;2022-07-03T11:53:23;99420.63;;;34.28;32.70
27729;BME280;15126;42.186;24.340;2022-07-03T11:55:56;99420.25;;;34.48;34.82
27729;BME280;15126;42.186;24.340;2022-07-03T11:58:24;99416.22;;;34.44;34.43
27729;BME280;15126;42.186;24.340;2022-07-03T12:00:52;99410.09;;;34.40;35.85
27729;BME280;15126;42.186;24.340;2022-07-03T12:03:25;99411.34;;;34.46;33.91
27729;BME280;15126;42.186;24.340;2022-07-03T12:05:54;99419.31;;;34.46;33.65
27729;BME280;15126;42.186;24.340;2022-07-03T12:08:24;99394.75;;;34.30;33.91
27729;BME280;15126;42.186;24.340;2022-07-03T12:10:59;99410.78;;;34.48;32.16
27729;BME280;15126;42.186;24.340;2022-07-03T12:13:28;99404.47;;;34.42;32.83
27729;BME280;15126;42.186;24.340;2022-07-03T12:16:08;99412.56;;;34.43;34.56
27729;BME280;15126;42.186;24.340;2022-07-03T12:18:46;99393.53;;;34.33;34.18
27729;BME280;15126;42.186;24.340;2022-07-03T12:21:14;99395.84;;;34.34;33.16
27729;BME280;15126;42.186;24.340;2022-07-03T12:23:45;99400.38;;;34.45;33.23
27729;BME280;15126;42.186;24.340;2022-07-03T12:26:12;99400.34;;;34.28;33.07
27729;BME280;15126;42.186;24.340;2022-07-03T12:28:40;99393.72;;;34.35;33.00
27729;BME280;15126;42.186;24.340;2022-07-03T12:31:08;99397.47;;;34.45;35.69
27729;BME280;15126;42.186;24.340;2022-07-03T12:33:35;99393.22;;;34.46;33.18
27729;BME280;15126;42.186;24.340;2022-07-03T12:36:04;99388.78;;;34.45;34.54
27729;BME280;15126;42.186;24.340;2022-07-03T12:38:31;99382.47;;;34.39;34.09
27729;BME280;15126;42.186;24.340;2022-07-03T12:41:04;99383.34;;;34.49;34.36
27729;BME280;15126;42.186;24.340;2022-07-03T12:43:39;99377.53;;;34.32;35.20
27729;BME280;15126;42.186;24.340;2022-07-03T12:46:23;99385.53;;;34.24;32.57
27729;BME280;15126;42.186;24.340;2022-07-03T12:48:52;99381.47;;;33.77;35.11
27729;BME280;15126;42.186;24.340;2022-07-03T12:51:40;99367.47;;;33.66;34.80
27729;BME280;15126;42.186;24.340;2022-07-03T12:54:08;99380.88;;;33.79;36.05
27729;BME280;15126;42.186;24.340;2022-07-03T12:56:37;99361.84;;;33.68;34.96
27729;BME280;15126;42.186;24.340;2022-07-03T12:59:04;99376.00;;;33.64;36.02
27729;BME280;15126;42.186;24.340;2022-07-03T13:01:43;99366.00;;;33.58;36.00
27729;BME280;15126;42.186;24.340;2022-07-03T13:04:11;99374.84;;;33.60;36.08
27729;BME280;15126;42.186;24.340;2022-07-03T13:06:41;99364.59;;;33.66;35.89
27729;BME280;15126;42.186;24.340;2022-07-03T13:09:10;99347.81;;;33.65;35.71
27729;BME280;15126;42.186;24.340;2022-07-03T13:11:41;99370.91;;;33.72;35.96
27729;BME280;15126;42.186;24.340;2022-07-03T13:14:09;99343.41;;;33.56;35.41